Time;durP1;ratioP1;P1;durP2;ratioP2;P2;SDS_P1;SDS_P2;PMS_P1;PMS_P2;Temp;Humidity;BMP_temperature;BMP_pressure;BME280_temperature;BME280_humidity;BME280_pressure;Samples;Min_cycle;Max_cycle;Signal;HPM_P1;HPM_P2
2022/06/21 00:02:07;;;;;;;11.70;4.07;;;17.40;59.90;;;;;;5005470;28;20205;-92
2022/06/21 00:04:36;;;;;;;10.87;4.87;;;17.40;59.90;;;;;;5009502;28;20562;-92
2022/06/21 00:07:08;;;;;;;9.60;4.13;;;17.30;59.90;;;;;;4991190;28;20218;-92
2022/06/21 00:09:35;;;;;;;9.47;3.93;;;17.30;60.00;;;;;;5008221;28;20210;-92
2022/06/21 00:12:04;;;;;;;11.23;4.10;;;17.20;59.90;;;;;;5011517;28;20638;-92
2022/06/21 00:14:31;;;;;;;13.37;5.07;;;17.20;60.40;;;;;;5011955;28;20205;-90
2022/06/21 00:16:59;;;;;;;15.37;5.63;;;17.20;60.20;;;;;;5007031;28;20320;-91
2022/06/21 00:19:32;;;;;;;14.43;4.77;;;17.10;59.90;;;;;;5011670;28;20655;-91
2022/06/21 00:22:00;;;;;;;14.73;5.10;;;17.10;59.90;;;;;;5011544;28;20204;-91
2022/06/21 00:24:27;;;;;;;12.87;4.67;;;17.10;59.80;;;;;;5009373;28;20232;-91
2022/06/21 00:26:54;;;;;;;11.30;4.67;;;17.10;59.80;;;;;;5012202;28;20204;-91
2022/06/21 00:29:21;;;;;;;20.43;6.53;;;17.10;59.80;;;;;;5010840;28;20240;-90
2022/06/21 00:31:49;;;;;;;17.80;6.47;;;17.00;59.70;;;;;;5009201;28;20295;-89
2022/06/21 00:34:21;;;;;;;17.27;6.20;;;17.00;59.90;;;;;;5005899;28;20202;-92
2022/06/21 00:36:50;;;;;;;8.07;3.77;;;17.00;60.30;;;;;;5009415;28;20354;-91
2022/06/21 00:39:20;;;;;;;12.17;5.10;;;17.00;60.70;;;;;;5003629;28;20263;-91
2022/06/21 00:41:52;;;;;;;10.60;4.27;;;17.00;60.90;;;;;;5012092;28;20213;-91
2022/06/21 00:44:24;;;;;;;10.63;3.77;;;16.90;60.90;;;;;;5006895;28;20202;-92
2022/06/21 00:47:00;;;;;;;13.57;4.63;;;16.90;61.80;;;;;;5010378;28;20208;-92
2022/06/21 00:49:31;;;;;;;13.97;5.10;;;16.90;61.00;;;;;;5008286;28;20205;-91
2022/06/21 00:52:06;;;;;;;13.33;5.43;;;16.80;60.50;;;;;;5001254;28;20215;-92
2022/06/21 00:54:39;;;;;;;14.37;4.67;;;16.70;60.60;;;;;;5010435;28;20209;-91
2022/06/21 00:57:15;;;;;;;15.73;5.90;;;16.80;60.70;;;;;;5009133;28;20241;-90
2022/06/21 00:59:43;;;;;;;10.57;4.13;;;16.70;60.90;;;;;;5022679;28;20211;-92
2022/06/21 01:02:20;;;;;;;17.03;6.13;;;16.70;60.90;;;;;;5010702;28;20315;-91
2022/06/21 01:04:53;;;;;;;10.03;4.33;;;16.60;61.70;;;;;;5012189;28;20204;-91
2022/06/21 01:07:27;;;;;;;13.50;4.80;;;16.60;61.50;;;;;;5009230;28;20927;-93
2022/06/21 01:10:07;;;;;;;12.33;4.73;;;16.60;61.50;;;;;;5009862;28;20208;-91
2022/06/21 01:12:42;;;;;;;12.37;4.77;;;16.60;61.70;;;;;;5014139;28;20304;-91
2022/06/21 01:15:13;;;;;;;12.17;4.27;;;16.50;61.80;;;;;;5013518;28;20214;-92
2022/06/21 01:17:40;;;;;;;13.27;4.77;;;16.50;61.70;;;;;;5011015;28;20209;-92
2022/06/21 01:20:14;;;;;;;8.37;4.33;;;16.40;61.40;;;;;;4998121;28;20223;-91
2022/06/21 01:22:54;;;;;;;11.83;4.67;;;16.40;61.80;;;;;;5008474;28;20604;-93
2022/06/21 01:25:39;;;;;;;14.87;5.53;;;16.40;61.80;;;;;;5003602;28;20217;-90
2022/06/21 01:28:11;;;;;;;13.97;4.73;;;16.30;61.80;;;;;;5009513;28;20865;-92
2022/06/21 01:30:39;;;;;;;15.83;5.57;;;16.30;61.70;;;;;;5007714;28;20207;-92
2022/06/21 01:33:08;;;;;;;18.27;6.07;;;16.30;61.70;;;;;;5004861;28;20728;-92
2022/06/21 01:35:41;;;;;;;12.13;4.50;;;16.20;61.70;;;;;;5007600;28;20244;-92
2022/06/21 01:38:13;;;;;;;12.50;5.00;;;16.20;62.20;;;;;;5009222;28;20242;-91
2022/06/21 01:40:45;;;;;;;11.67;5.17;;;16.20;62.40;;;;;;5007452;28;20208;-92
2022/06/21 01:43:18;;;;;;;14.70;5.03;;;16.20;62.50;;;;;;4999081;28;20292;-93
2022/06/21 01:45:54;;;;;;;13.33;4.83;;;16.10;62.60;;;;;;4997484;28;20213;-92
2022/06/21 01:48:25;;;;;;;9.83;4.63;;;16.10;62.60;;;;;;4996967;28;20204;-90
2022/06/21 01:50:57;;;;;;;12.70;5.33;;;16.10;62.80;;;;;;5010050;28;20209;-92
2022/06/21 01:53:27;;;;;;;9.63;4.10;;;16.10;63.00;;;;;;5010415;28;20205;-91
2022/06/21 01:55:59;;;;;;;16.10;5.83;;;16.10;63.00;;;;;;5005694;28;20204;-92
2022/06/21 01:58:41;;;;;;;17.97;6.23;;;16.10;63.00;;;;;;4992325;28;20257;-91
2022/06/21 02:01:14;;;;;;;17.43;6.27;;;16.00;62.90;;;;;;5005393;28;20216;-91
2022/06/21 02:03:46;;;;;;;23.87;7.43;;;16.00;63.20;;;;;;5006495;28;20251;-92
2022/06/21 02:06:15;;;;;;;11.47;4.73;;;16.00;63.30;;;;;;5000758;28;20205;-92
2022/06/21 02:08:48;;;;;;;18.13;6.47;;;16.00;63.10;;;;;;5003860;28;20303;-91
2022/06/21 02:11:21;;;;;;;11.93;4.63;;;15.90;63.00;;;;;;4990207;28;20217;-91
2022/06/21 02:16:41;;;;;;;11.00;5.43;;;15.90;63.60;;;;;;5007481;28;20301;-90
2022/06/21 02:19:15;;;;;;;17.23;5.50;;;15.90;63.60;;;;;;5008140;28;20212;-90
2022/06/21 02:21:43;;;;;;;11.57;4.87;;;15.90;63.80;;;;;;5009571;28;20570;-90
2022/06/21 02:24:15;;;;;;;12.33;5.13;;;15.90;63.60;;;;;;5007149;28;21228;-91
2022/06/21 02:26:43;;;;;;;13.97;5.57;;;15.80;64.10;;;;;;5007365;28;20275;-91
2022/06/21 02:29:14;;;;;;;20.30;7.53;;;15.80;64.00;;;;;;5007254;28;20210;-90
2022/06/21 02:31:46;;;;;;;12.63;5.73;;;15.80;64.20;;;;;;5008552;28;20558;-91
2022/06/21 02:34:21;;;;;;;18.57;7.27;;;15.80;64.20;;;;;;5004423;28;20232;-91
2022/06/21 02:36:51;;;;;;;13.23;5.47;;;15.80;64.90;;;;;;4990405;28;20228;-91
2022/06/21 02:39:22;;;;;;;11.13;4.63;;;15.80;64.40;;;;;;5008065;28;20302;-92
2022/06/21 02:41:53;;;;;;;10.67;5.10;;;15.70;64.20;;;;;;5008931;28;20227;-91
2022/06/21 02:44:28;;;;;;;17.20;6.37;;;15.70;64.20;;;;;;5008059;28;20198;-92
2022/06/21 02:47:00;;;;;;;11.27;4.97;;;15.70;64.70;;;;;;5007505;28;20760;-90
2022/06/21 02:49:34;;;;;;;13.37;5.70;;;15.70;64.50;;;;;;5016034;28;20712;-91
2022/06/21 02:52:07;;;;;;;15.63;5.60;;;15.70;64.70;;;;;;5015042;28;20230;-91
2022/06/21 02:54:37;;;;;;;13.87;6.00;;;15.70;64.70;;;;;;5009439;28;20207;-91
2022/06/21 02:57:10;;;;;;;20.93;7.47;;;15.70;64.70;;;;;;5009436;28;20231;-90
2022/06/21 02:59:40;;;;;;;10.70;4.83;;;15.70;64.90;;;;;;5008408;28;20254;-89
2022/06/21 03:02:11;;;;;;;13.33;5.67;;;15.60;64.40;;;;;;5008405;28;20767;-91
2022/06/21 03:04:43;;;;;;;18.47;5.53;;;15.60;64.10;;;;;;5007299;28;20212;-90
2022/06/21 03:07:17;;;;;;;15.53;6.53;;;15.60;64.40;;;;;;5007656;28;20929;-92
2022/06/21 03:09:44;;;;;;;13.43;6.17;;;15.60;64.80;;;;;;4989526;28;20267;-91
2022/06/21 03:12:19;;;;;;;20.27;7.97;;;15.60;64.30;;;;;;4992305;28;20254;-90
2022/06/21 03:14:49;;;;;;;14.93;6.40;;;15.60;64.30;;;;;;4999656;28;20207;-90
2022/06/21 03:17:18;;;;;;;12.83;6.30;;;15.60;64.20;;;;;;4997784;28;20223;-90
2022/06/21 03:19:49;;;;;;;14.50;6.50;;;15.60;64.40;;;;;;5013513;28;20205;-90
2022/06/21 03:22:19;;;;;;;15.83;6.77;;;15.60;64.40;;;;;;5010686;28;20204;-90
2022/06/21 03:24:51;;;;;;;12.27;6.43;;;15.60;64.40;;;;;;5010072;28;20203;-89
2022/06/21 03:27:25;;;;;;;13.57;6.47;;;15.60;64.70;;;;;;5013052;28;20227;-89
2022/06/21 03:29:55;;;;;;;13.83;6.27;;;15.60;65.00;;;;;;5013942;28;20203;-90
2022/06/21 03:32:24;;;;;;;13.23;6.60;;;15.60;65.00;;;;;;5004115;28;20629;-89
2022/06/21 03:34:53;;;;;;;15.73;6.60;;;15.60;64.80;;;;;;5008788;28;20216;-91
2022/06/21 03:37:20;;;;;;;15.80;6.87;;;15.60;65.40;;;;;;5008602;28;20236;-89
2022/06/21 03:42:39;;;;;;;11.97;6.40;;;15.60;65.90;;;;;;4994234;28;20262;-90
2022/06/21 03:45:16;;;;;;;17.70;7.17;;;15.60;66.00;;;;;;4990835;28;20212;-91
2022/06/21 03:47:49;;;;;;;22.03;7.57;;;15.60;66.20;;;;;;5006607;28;20657;-90
2022/06/21 03:50:22;;;;;;;8.27;5.10;;;15.60;66.10;;;;;;5008578;28;20761;-90
2022/06/21 03:53:01;;;;;;;13.50;6.10;;;15.60;66.20;;;;;;5012864;28;20208;-90
2022/06/21 03:55:40;;;;;;;14.07;6.20;;;15.60;66.60;;;;;;5022940;28;20211;-91
2022/06/21 03:58:13;;;;;;;16.13;6.87;;;15.50;66.50;;;;;;5006231;28;20230;-91
2022/06/21 04:00:46;;;;;;;11.37;5.80;;;15.50;65.70;;;;;;5007670;28;20296;-91
2022/06/21 04:03:20;;;;;;;16.57;6.93;;;15.50;66.00;;;;;;5004667;28;20216;-90
2022/06/21 04:05:52;;;;;;;23.20;9.23;;;15.50;66.50;;;;;;5006001;28;20203;-91
2022/06/21 04:08:25;;;;;;;13.60;5.73;;;15.50;66.50;;;;;;5006449;28;20699;-91
2022/06/21 04:10:57;;;;;;;22.83;8.77;;;15.50;66.60;;;;;;5006891;28;20304;-90
2022/06/21 04:13:29;;;;;;;12.30;6.37;;;15.50;66.10;;;;;;5007536;28;20274;-91
2022/06/21 04:16:03;;;;;;;16.10;6.77;;;15.40;65.70;;;;;;5005844;28;20270;-90
2022/06/21 04:18:36;;;;;;;10.10;5.60;;;15.40;66.20;;;;;;5007174;28;20371;-90
2022/06/21 04:21:11;;;;;;;13.00;6.70;;;15.50;66.60;;;;;;5005117;28;20279;-90
2022/06/21 04:23:46;;;;;;;12.77;6.57;;;15.50;66.90;;;;;;5005639;28;20238;-90
2022/06/21 04:26:20;;;;;;;11.70;5.70;;;15.40;67.00;;;;;;5006528;28;20228;-90
2022/06/21 04:28:52;;;;;;;19.33;7.60;;;15.40;67.00;;;;;;5007085;28;20217;-90
2022/06/21 04:31:28;;;;;;;14.47;6.43;;;15.40;67.20;;;;;;5009659;28;20202;-91
2022/06/21 04:34:00;;;;;;;19.60;6.97;;;15.40;67.60;;;;;;5003527;28;21015;-92
2022/06/21 04:36:51;;;;;;;13.43;6.67;;;15.40;67.60;;;;;;5009086;28;20217;-91
2022/06/21 04:39:24;;;;;;;13.13;6.37;;;15.40;67.90;;;;;;5012950;22;20231;-91
2022/06/21 04:41:58;;;;;;;18.50;7.70;;;15.40;67.90;;;;;;5027906;28;20294;-90
2022/06/21 04:44:30;;;;;;;15.77;7.37;;;15.40;68.30;;;;;;5010623;28;20310;-91
2022/06/21 04:47:06;;;;;;;16.30;7.33;;;15.40;68.40;;;;;;5007415;28;20201;-92
2022/06/21 04:49:39;;;;;;;14.13;7.07;;;15.40;69.10;;;;;;5017485;28;20638;-92
2022/06/21 04:52:12;;;;;;;15.07;7.40;;;15.40;69.10;;;;;;5027054;28;20212;-91
2022/06/21 04:54:42;;;;;;;15.43;7.27;;;15.40;69.30;;;;;;5016249;28;20652;-92
2022/06/21 04:57:19;;;;;;;21.70;9.37;;;15.40;70.00;;;;;;5023790;28;20197;-90
2022/06/21 04:59:48;;;;;;;15.83;7.40;;;15.40;70.30;;;;;;5012438;28;20227;-92
2022/06/21 05:02:21;;;;;;;13.80;7.47;;;15.50;70.10;;;;;;5011692;28;20204;-92
2022/06/21 05:04:53;;;;;;;17.70;8.20;;;15.50;70.80;;;;;;5019703;28;20209;-91
2022/06/21 05:07:25;;;;;;;22.30;9.53;;;15.50;71.00;;;;;;5012119;28;20676;-91
2022/06/21 05:09:55;;;;;;;21.13;8.50;;;15.60;71.30;;;;;;5019789;28;20208;-92
2022/06/21 05:12:30;;;;;;;15.57;7.80;;;15.60;71.70;;;;;;5031606;28;20291;-92
2022/06/21 05:15:02;;;;;;;14.37;8.43;;;15.60;72.30;;;;;;5022072;28;20883;-92
2022/06/21 05:17:36;;;;;;;16.97;9.27;;;15.70;72.40;;;;;;5013202;28;20298;-91
2022/06/21 05:20:06;;;;;;;14.43;8.53;;;15.70;73.10;;;;;;5008775;28;20223;-92
2022/06/21 05:22:37;;;;;;;14.87;7.93;;;15.80;73.00;;;;;;5012095;28;20242;-92
2022/06/21 05:25:16;;;;;;;15.17;8.87;;;15.80;72.80;;;;;;5012004;28;20234;-92
2022/06/21 05:27:50;;;;;;;16.87;8.43;;;15.90;73.50;;;;;;5009047;28;20212;-92
2022/06/21 05:30:22;;;;;;;12.30;7.77;;;16.00;73.00;;;;;;5003132;28;20202;-92
2022/06/21 05:32:57;;;;;;;18.07;9.03;;;16.00;72.90;;;;;;5011500;28;20201;-91
2022/06/21 05:35:27;;;;;;;21.20;8.97;;;16.10;73.10;;;;;;5012614;28;20635;-93
2022/06/21 05:37:59;;;;;;;17.97;9.07;;;16.20;72.90;;;;;;5010810;28;20314;-92
2022/06/21 05:40:34;;;;;;;16.30;8.53;;;16.20;72.90;;;;;;5010241;28;20220;-91
2022/06/21 05:43:05;;;;;;;14.53;7.97;;;16.30;73.00;;;;;;5012722;28;20215;-91
2022/06/21 05:45:35;;;;;;;15.40;8.53;;;16.40;73.10;;;;;;5010618;28;20201;-91
2022/06/21 05:48:09;;;;;;;14.53;8.23;;;16.50;73.20;;;;;;5010895;28;20299;-91
2022/06/21 05:50:36;;;;;;;15.93;8.47;;;16.60;73.30;;;;;;5000170;28;20213;-90
2022/06/21 05:53:12;;;;;;;17.63;9.13;;;16.60;72.50;;;;;;5011646;28;20607;-91
2022/06/21 05:55:44;;;;;;;22.17;8.70;;;16.70;73.30;;;;;;5010498;28;20669;-93
2022/06/21 05:58:18;;;;;;;24.67;10.23;;;16.80;72.50;;;;;;5009445;28;20258;-93
2022/06/21 06:00:51;;;;;;;12.23;7.47;;;16.80;72.70;;;;;;5010046;28;20367;-93
2022/06/21 06:03:25;;;;;;;11.63;7.40;;;16.90;73.00;;;;;;5011075;28;20209;-93
2022/06/21 06:05:55;;;;;;;19.53;9.20;;;16.90;73.40;;;;;;5009038;28;20317;-95
2022/06/21 06:08:26;;;;;;;14.03;8.83;;;17.00;73.40;;;;;;5028042;28;20209;-94
2022/06/21 06:10:55;;;;;;;24.73;11.43;;;17.00;73.10;;;;;;5030395;28;20208;-95
2022/06/21 06:13:31;;;;;;;19.47;9.63;;;17.10;73.00;;;;;;4992795;28;20233;-94
2022/06/21 06:16:05;;;;;;;16.33;8.23;;;17.20;73.00;;;;;;5007294;28;20232;-93
2022/06/21 06:18:57;;;;;;;16.20;8.93;;;17.20;72.80;;;;;;5011361;28;20328;-96
2022/06/21 06:21:35;;;;;;;15.27;8.17;;;17.30;73.20;;;;;;5005294;28;20197;-93
2022/06/21 06:24:07;;;;;;;15.73;8.53;;;17.40;73.00;;;;;;5006046;28;20253;-90
2022/06/21 06:26:40;;;;;;;13.97;7.50;;;17.40;72.50;;;;;;5018194;28;20249;-92
2022/06/21 06:29:15;;;;;;;15.97;8.27;;;17.50;72.70;;;;;;5012150;28;20238;-93
2022/06/21 06:31:50;;;;;;;18.20;9.00;;;17.50;72.70;;;;;;5011751;28;20658;-93
2022/06/21 06:34:21;;;;;;;21.27;10.03;;;17.50;72.60;;;;;;5008754;28;20202;-93
2022/06/21 06:36:58;;;;;;;9.83;7.60;;;17.60;72.50;;;;;;5012737;28;20691;-93
2022/06/21 06:39:32;;;;;;;13.83;7.93;;;17.70;73.00;;;;;;5007495;28;20229;-94
2022/06/21 06:42:05;;;;;;;15.13;7.90;;;17.70;72.80;;;;;;5011712;28;20666;-93
2022/06/21 06:44:38;;;;;;;17.20;8.00;;;17.80;72.60;;;;;;5011742;28;20210;-92
2022/06/21 06:50:23;;;;;;;15.40;8.33;;;17.90;73.00;;;;;;5070715;22;20716;-93
2022/06/21 06:52:56;;;;;;;15.37;8.40;;;18.00;72.20;;;;;;5054422;28;20192;-92
2022/06/21 06:55:30;;;;;;;23.47;8.90;;;18.10;72.30;;;;;;5049960;28;20803;-93
2022/06/21 06:58:03;;;;;;;17.40;8.03;;;18.10;72.30;;;;;;5041697;28;20244;-93
2022/06/21 07:00:37;;;;;;;13.17;7.47;;;18.20;72.50;;;;;;5039253;28;20239;-95
2022/06/21 07:03:11;;;;;;;12.63;7.23;;;18.30;72.40;;;;;;5040301;28;20553;-92
2022/06/21 07:05:44;;;;;;;15.77;8.57;;;18.30;71.80;;;;;;5044040;28;20204;-93
2022/06/21 07:08:20;;;;;;;22.07;10.93;;;18.40;71.80;;;;;;5058986;22;20214;-92
2022/06/21 07:10:51;;;;;;;17.97;8.90;;;18.50;72.50;;;;;;5020585;28;20233;-93
2022/06/21 07:16:26;;;;;;;20.27;9.33;;;18.60;71.00;;;;;;4974508;28;20690;-92
2022/06/21 07:18:59;;;;;;;14.23;8.07;;;18.70;71.00;;;;;;5021285;28;20274;-93
2022/06/21 07:21:28;;;;;;;16.43;7.80;;;18.80;70.90;;;;;;5014392;28;20196;-92
2022/06/21 07:23:59;;;;;;;16.37;7.57;;;18.80;70.70;;;;;;5023104;28;20236;-93
2022/06/21 07:26:31;;;;;;;17.30;8.60;;;18.90;70.80;;;;;;5030274;28;20217;-92
2022/06/21 07:29:05;;;;;;;14.07;6.70;;;19.00;70.40;;;;;;5042724;28;20627;-91
2022/06/21 07:31:35;;;;;;;12.97;7.13;;;19.10;70.80;;;;;;5050158;28;20892;-91
2022/06/21 07:34:10;;;;;;;20.47;8.93;;;19.10;70.40;;;;;;5042708;28;20636;-93
2022/06/21 07:36:59;;;;;;;13.13;6.30;;;19.20;70.50;;;;;;5018359;28;20223;-93
2022/06/21 07:39:46;;;;;;;15.37;7.13;;;19.20;70.50;;;;;;5028697;28;20848;-93
2022/06/21 07:42:21;;;;;;;13.83;6.33;;;19.40;69.60;;;;;;5029857;28;20200;-92
2022/06/21 07:44:53;;;;;;;12.73;6.47;;;19.40;69.50;;;;;;5028597;28;20200;-93
2022/06/21 07:47:27;;;;;;;15.50;7.20;;;19.50;69.00;;;;;;5030028;28;20205;-93
2022/06/21 07:49:59;;;;;;;14.67;7.20;;;19.60;69.40;;;;;;5029403;28;20223;-93
2022/06/21 07:52:50;;;;;;;11.63;6.43;;;19.70;69.30;;;;;;5030593;28;20216;-94
2022/06/21 08:09:12;;;;;;;47.93;17.70;;;20.40;67.10;;;;;;3893157;22;33599826;-92
2022/06/21 08:11:43;;;;;;;12.20;6.10;;;20.50;66.30;;;;;;4986117;28;20202;-95
2022/06/21 08:14:21;;;;;;;18.17;8.13;;;20.60;66.40;;;;;;4986326;28;20234;-94
2022/06/21 08:16:54;;;;;;;14.63;6.87;;;20.70;66.50;;;;;;5004041;28;20198;-93
2022/06/21 08:19:33;;;;;;;14.07;6.80;;;20.80;65.60;;;;;;4977466;28;20230;-95
2022/06/21 08:22:04;;;;;;;12.97;6.00;;;20.90;65.60;;;;;;4975436;28;20225;-91
2022/06/21 08:24:41;;;;;;;11.10;4.97;;;20.90;65.10;;;;;;5014554;28;20799;-93
2022/06/21 08:27:24;;;;;;;13.20;5.93;;;21.10;64.30;;;;;;5010533;28;20207;-94
2022/06/21 08:29:56;;;;;;;8.47;4.97;;;21.10;64.00;;;;;;5017855;28;20235;-92
2022/06/21 08:32:31;;;;;;;10.23;5.90;;;21.20;64.50;;;;;;5039195;28;20614;-94
2022/06/21 08:35:07;;;;;;;10.73;5.73;;;21.30;64.20;;;;;;5040060;28;20206;-93
2022/06/21 08:37:40;;;;;;;18.17;7.23;;;21.40;64.40;;;;;;5029874;28;20620;-92
2022/06/21 08:40:34;;;;;;;9.17;5.07;;;21.50;63.80;;;;;;5033634;28;20224;-94
2022/06/21 08:43:57;;;;;;;10.43;5.37;;;21.60;63.70;;;;;;5018278;28;20221;-94
2022/06/21 08:50:40;;;;;;;9.47;4.67;;;21.90;62.40;;;;;;5001062;28;20581;-94
2022/06/21 08:53:37;;;;;;;8.33;5.30;;;22.10;62.30;;;;;;5024865;28;20301;-92
2022/06/21 08:56:17;;;;;;;10.63;5.60;;;22.30;61.70;;;;;;5052514;22;20235;-94
2022/06/21 08:58:59;;;;;;;10.77;5.37;;;22.40;61.20;;;;;;5032233;28;20221;-93
2022/06/21 09:01:37;;;;;;;13.47;6.47;;;22.60;61.60;;;;;;5035146;28;20243;-94
2022/06/21 09:04:29;;;;;;;18.50;7.40;;;22.70;61.00;;;;;;5037066;28;20206;-94
2022/06/21 09:07:15;;;;;;;11.97;5.40;;;22.90;60.00;;;;;;5033875;28;20234;-92
2022/06/21 09:09:54;;;;;;;11.30;5.70;;;23.10;59.80;;;;;;5031175;28;20266;-91
2022/06/21 09:12:36;;;;;;;9.33;4.70;;;23.20;59.70;;;;;;5062780;28;20248;-94
2022/06/21 09:15:12;;;;;;;7.67;4.73;;;23.40;59.30;;;;;;5060671;28;20417;-94
2022/06/21 09:17:53;;;;;;;10.13;6.13;;;23.50;59.20;;;;;;5050983;28;20206;-93
2022/06/21 09:20:32;;;;;;;9.23;4.70;;;23.60;58.50;;;;;;5061570;28;20220;-93
2022/06/21 09:23:08;;;;;;;7.17;3.93;;;23.70;58.60;;;;;;5068672;28;20217;-92
2022/06/21 09:25:45;;;;;;;13.10;5.83;;;23.80;58.20;;;;;;5073799;28;20641;-94
2022/06/21 09:28:25;;;;;;;7.63;4.20;;;23.80;57.30;;;;;;5053655;28;20226;-94
2022/06/21 09:31:00;;;;;;;7.93;4.50;;;23.90;57.10;;;;;;5052393;28;20198;-93
2022/06/21 09:34:03;;;;;;;9.57;4.13;;;24.00;57.50;;;;;;5048237;28;20232;-92
2022/06/21 09:36:48;;;;;;;10.17;4.37;;;24.10;57.50;;;;;;5033409;28;20587;-94
2022/06/21 09:39:22;;;;;;;8.73;5.10;;;24.10;57.00;;;;;;5052052;28;20702;-93
2022/06/21 09:41:56;;;;;;;9.20;4.27;;;24.20;56.30;;;;;;5050934;22;20227;-94
2022/06/21 09:44:40;;;;;;;7.23;4.60;;;24.20;56.30;;;;;;5012873;28;20189;-95
2022/06/21 09:47:21;;;;;;;13.07;6.20;;;24.30;56.10;;;;;;5014027;28;20209;-93
2022/06/21 09:50:00;;;;;;;9.87;4.63;;;24.30;55.70;;;;;;5027288;28;20782;-93
2022/06/21 09:52:38;;;;;;;7.90;4.47;;;24.30;55.40;;;;;;5078672;22;20230;-95
2022/06/21 09:55:17;;;;;;;8.83;4.13;;;24.30;55.80;;;;;;5093433;28;20198;-94
2022/06/21 09:57:54;;;;;;;11.97;5.63;;;24.30;56.20;;;;;;5082785;28;20214;-94
2022/06/21 10:00:34;;;;;;;12.00;5.90;;;24.40;56.50;;;;;;5075194;28;20250;-94
2022/06/21 10:03:16;;;;;;;9.63;5.53;;;24.40;56.40;;;;;;5074060;28;20231;-94
2022/06/21 10:05:50;;;;;;;14.43;6.40;;;24.40;55.90;;;;;;5083365;28;20207;-94
2022/06/21 10:08:25;;;;;;;9.00;5.07;;;24.50;56.00;;;;;;5052761;28;20253;-94
2022/06/21 10:11:04;;;;;;;12.10;6.00;;;24.60;56.20;;;;;;5056513;22;20993;-93
2022/06/21 10:14:02;;;;;;;12.70;6.20;;;24.60;54.90;;;;;;5043853;28;20309;-95
2022/06/21 10:17:03;;;;;;;10.70;4.93;;;24.70;55.30;;;;;;5053089;28;20215;-93
2022/06/21 10:19:40;;;;;;;16.43;6.93;;;24.70;55.00;;;;;;5050295;28;20782;-96
2022/06/21 10:22:27;;;;;;;9.87;4.47;;;24.80;55.00;;;;;;5042786;28;20224;-93
2022/06/21 10:25:31;;;;;;;11.37;5.10;;;24.80;54.80;;;;;;5053707;28;20590;-94
2022/06/21 10:28:22;;;;;;;9.50;4.70;;;24.80;54.40;;;;;;5043478;28;20211;-95
2022/06/21 10:31:22;;;;;;;17.60;6.63;;;24.80;54.80;;;;;;5033393;28;20211;-96
2022/06/21 10:34:26;;;;;;;7.90;4.27;;;24.80;54.60;;;;;;5047142;28;20266;-95
2022/06/21 10:43:39;;;;;;;9.87;4.87;;;24.80;55.10;;;;;;5542812;22;20234;-96
2022/06/21 10:50:00;;;;;;;13.40;6.33;;;24.90;54.10;;;;;;5396944;22;20245;-96
2022/06/21 10:52:52;;;;;;;13.00;5.27;;;24.90;54.30;;;;;;5043395;28;20200;-96
2022/06/21 10:58:53;;;;;;;6.47;4.30;;;24.90;54.40;;;;;;5008308;28;20208;-96
2022/06/21 11:01:53;;;;;;;6.73;3.97;;;24.90;54.30;;;;;;5045615;28;20669;-94
2022/06/21 11:04:40;;;;;;;8.43;4.87;;;25.00;54.10;;;;;;5055691;28;20646;-95
2022/06/21 11:07:16;;;;;;;7.63;4.60;;;25.00;53.60;;;;;;5051840;28;20821;-93
2022/06/21 11:09:52;;;;;;;13.43;4.77;;;24.90;53.70;;;;;;5055457;28;20218;-94
2022/06/21 11:15:18;;;;;;;9.73;4.67;;;24.90;53.80;;;;;;5024946;28;20208;-95
2022/06/21 11:17:52;;;;;;;5.70;3.63;;;24.90;53.40;;;;;;5059719;28;20295;-95
2022/06/21 11:20:29;;;;;;;9.07;4.50;;;24.90;53.70;;;;;;5057349;28;20227;-95
2022/06/21 11:23:05;;;;;;;5.80;3.80;;;24.90;53.20;;;;;;5055621;28;20758;-95
2022/06/21 11:25:52;;;;;;;8.83;4.50;;;24.90;53.70;;;;;;5054339;28;20218;-95
2022/06/21 11:28:57;;;;;;;12.33;5.50;;;24.90;53.00;;;;;;5055411;28;20204;-94
2022/06/21 11:31:40;;;;;;;7.27;3.80;;;24.90;53.10;;;;;;5049427;28;20698;-95
2022/06/21 11:34:18;;;;;;;9.40;4.83;;;25.00;52.90;;;;;;5042296;28;20657;-94
2022/06/21 11:36:53;;;;;;;10.23;4.33;;;25.00;53.00;;;;;;5063445;28;20444;-94
2022/06/21 11:39:35;;;;;;;6.83;4.47;;;25.00;52.60;;;;;;5061007;28;20234;-95
2022/06/21 11:42:21;;;;;;;12.53;6.23;;;25.00;52.20;;;;;;5063333;28;20246;-96
2022/06/21 11:45:25;;;;;;;6.53;4.93;;;25.00;52.20;;;;;;5060665;28;20260;-96
2022/06/21 11:48:21;;;;;;;5.37;4.17;;;25.00;51.80;;;;;;5063635;28;20200;-96
2022/06/21 11:50:59;;;;;;;12.50;6.73;;;25.00;52.50;;;;;;5060173;28;20215;-94
2022/06/21 11:54:01;;;;;;;9.03;5.50;;;25.00;53.00;;;;;;5062682;28;20196;-96
2022/06/21 11:56:40;;;;;;;10.60;5.70;;;25.00;53.00;;;;;;5027359;28;20229;-95
2022/06/21 11:59:20;;;;;;;9.57;5.50;;;25.00;52.80;;;;;;5091446;28;20233;-95
2022/06/21 12:01:57;;;;;;;12.10;6.03;;;25.00;52.90;;;;;;5035915;28;20782;-96
2022/06/21 12:04:45;;;;;;;11.33;5.73;;;25.10;53.00;;;;;;5046958;28;20657;-96
2022/06/21 12:07:21;;;;;;;16.90;7.40;;;25.10;52.50;;;;;;5058573;28;20200;-95
2022/06/21 12:09:57;;;;;;;10.20;5.13;;;25.20;53.10;;;;;;5056099;28;20710;-94
2022/06/21 12:12:51;;;;;;;7.97;5.33;;;25.30;53.30;;;;;;5053469;28;20293;-96
2022/06/21 12:15:34;;;;;;;12.20;7.20;;;25.40;53.20;;;;;;5054689;28;20208;-94
2022/06/21 12:18:14;;;;;;;9.87;5.67;;;25.40;53.20;;;;;;5057583;28;20215;-93
2022/06/21 12:20:45;;;;;;;10.50;6.23;;;25.50;53.10;;;;;;5066382;28;20227;-93
2022/06/21 12:23:21;;;;;;;10.13;5.53;;;25.60;53.90;;;;;;5062349;28;20599;-93
2022/06/21 12:25:52;;;;;;;6.87;4.73;;;25.70;53.10;;;;;;5072831;28;20222;-94
2022/06/21 12:28:24;;;;;;;8.27;5.00;;;25.90;54.00;;;;;;5057608;28;20681;-94
2022/06/21 12:31:17;;;;;;;12.20;5.57;;;25.90;52.40;;;;;;5064921;28;20203;-94
2022/06/21 12:33:52;;;;;;;12.33;6.30;;;26.10;51.40;;;;;;5055037;28;20211;-92
2022/06/21 12:36:41;;;;;;;11.97;5.20;;;26.20;51.70;;;;;;5042708;28;20219;-93
2022/06/21 12:39:21;;;;;;;8.73;4.73;;;26.30;50.70;;;;;;5039719;28;20204;-93
2022/06/21 12:42:05;;;;;;;9.73;5.03;;;26.40;50.40;;;;;;5059923;28;20220;-93
2022/06/21 12:48:05;;;;;;;10.07;5.13;;;26.60;50.20;;;;;;5054222;28;20211;-94
2022/06/21 12:50:46;;;;;;;8.00;5.33;;;26.70;49.90;;;;;;5066520;28;20212;-94
2022/06/21 12:53:59;;;;;;;9.37;5.67;;;26.80;49.80;;;;;;5069860;28;20556;-94
2022/06/21 12:56:51;;;;;;;6.73;4.67;;;26.90;50.00;;;;;;5050178;28;20589;-96
2022/06/21 12:59:49;;;;;;;9.57;5.73;;;27.00;48.80;;;;;;5068151;28;20300;-95
2022/06/21 13:02:54;;;;;;;7.97;5.60;;;27.00;49.40;;;;;;5050843;28;20222;-96
2022/06/21 13:05:52;;;;;;;7.90;5.07;;;27.10;48.50;;;;;;5065374;28;20216;-95
2022/06/21 13:09:16;;;;;;;10.20;6.50;;;27.10;48.80;;;;;;5033694;28;20235;-94
2022/06/21 13:12:21;;;;;;;8.13;6.40;;;27.30;49.70;;;;;;4940481;29;20775;-94
2022/06/21 13:15:17;;;;;;;9.07;5.23;;;27.40;49.30;;;;;;4921487;29;21046;-95
2022/06/21 13:18:18;;;;;;;13.10;6.40;;;27.40;48.20;;;;;;4943133;28;20294;-94
2022/06/21 13:21:00;;;;;;;8.50;4.97;;;27.50;48.20;;;;;;4981266;28;20285;-95
2022/06/21 13:23:53;;;;;;;7.30;5.90;;;27.50;48.50;;;;;;5033066;28;20217;-95
2022/06/21 13:26:43;;;;;;;7.13;4.73;;;27.60;47.50;;;;;;5056448;28;20652;-94
2022/06/21 13:29:22;;;;;;;5.60;4.00;;;27.70;47.80;;;;;;5067576;28;20709;-95
2022/06/21 13:32:05;;;;;;;8.30;3.97;;;27.70;48.10;;;;;;5066173;28;20215;-96
2022/06/21 13:34:45;;;;;;;6.53;4.00;;;27.70;46.70;;;;;;5037355;28;20210;-96
2022/06/21 13:37:18;;;;;;;14.30;5.50;;;27.70;45.10;;;;;;5051400;28;20196;-94
2022/06/21 13:40:30;;;;;;;9.60;4.50;;;27.70;46.20;;;;;;5034980;28;20232;-94
2022/06/21 13:43:04;;;;;;;8.70;4.43;;;27.70;45.40;;;;;;5059105;28;20214;-95
2022/06/21 13:45:46;;;;;;;4.80;3.27;;;27.70;45.40;;;;;;5056214;28;20711;-94
2022/06/21 13:48:35;;;;;;;3.43;2.57;;;27.70;44.90;;;;;;5065046;28;20239;-96
2022/06/21 13:51:24;;;;;;;4.33;3.07;;;27.60;45.20;;;;;;5070351;28;20220;-96
2022/06/21 13:54:10;;;;;;;2.80;2.30;;;27.60;45.60;;;;;;5069945;28;20192;-96
2022/06/21 13:56:56;;;;;;;7.67;4.10;;;27.50;45.00;;;;;;5065615;28;20243;-95
2022/06/21 13:59:32;;;;;;;6.67;3.80;;;27.50;45.30;;;;;;5050772;28;20181;-96
2022/06/21 14:02:17;;;;;;;4.90;3.23;;;27.50;45.50;;;;;;5055237;28;20649;-95
2022/06/21 14:04:57;;;;;;;6.70;3.10;;;27.50;44.30;;;;;;5056441;28;20200;-96
2022/06/21 14:07:35;;;;;;;7.73;3.73;;;27.40;44.80;;;;;;5057842;28;20658;-95
2022/06/21 14:10:33;;;;;;;10.60;5.33;;;27.40;44.90;;;;;;5060733;28;20211;-95
2022/06/21 14:13:09;;;;;;;7.17;4.27;;;27.40;44.70;;;;;;5035715;28;20215;-95
2022/06/21 14:15:47;;;;;;;8.80;4.30;;;27.40;45.20;;;;;;5047361;28;20295;-96
2022/06/21 14:18:25;;;;;;;10.90;4.87;;;27.30;45.20;;;;;;5051870;28;20287;-96
2022/06/21 14:21:00;;;;;;;10.27;4.70;;;27.30;45.10;;;;;;5049847;28;20243;-95